PRINT OUT SECTION, show ยป

TAF EPRA 060200Z NIL=

TAF EPSY 062030Z 0621/0706 VRB02KT 3000 -RASN BR OVC005
TEMPO 0621/0706 1500 SN OVC002=

TAF AMD EPZG 062130Z 0621/0706 CNL=